sensor_id;sensor_type;location;lat;lon;timestamp;P1;durP1;ratioP1;P2;durP2;ratioP2
21721;SDS011;11023;48.274;7.794;2023-02-01T00:00:46;12.20;;;8.15;;
21721;SDS011;11023;48.274;7.794;2023-02-01T00:03:13;11.05;;;7.85;;
21721;SDS011;11023;48.274;7.794;2023-02-01T00:05:39;11.80;;;7.80;;
21721;SDS011;11023;48.274;7.794;2023-02-01T00:08:05;11.90;;;7.72;;
21721;SDS011;11023;48.274;7.794;2023-02-01T00:10:30;10.73;;;7.28;;
21721;SDS011;11023;48.274;7.794;2023-02-01T00:12:56;10.05;;;7.40;;
21721;SDS011;11023;48.274;7.794;2023-02-01T00:15:22;10.52;;;7.65;;
21721;SDS011;11023;48.274;7.794;2023-02-01T00:17:48;11.38;;;6.95;;
21721;SDS011;11023;48.274;7.794;2023-02-01T00:20:19;9.77;;;7.00;;
21721;SDS011;11023;48.274;7.794;2023-02-01T00:22:44;11.07;;;7.05;;
21721;SDS011;11023;48.274;7.794;2023-02-01T00:25:10;10.35;;;7.30;;
21721;SDS011;11023;48.274;7.794;2023-02-01T00:27:36;9.57;;;6.82;;
21721;SDS011;11023;48.274;7.794;2023-02-01T00:30:02;10.27;;;7.18;;
21721;SDS011;11023;48.274;7.794;2023-02-01T00:32:28;10.80;;;7.32;;
21721;SDS011;11023;48.274;7.794;2023-02-01T00:34:53;11.98;;;7.13;;
21721;SDS011;11023;48.274;7.794;2023-02-01T00:37:19;9.82;;;6.57;;
21721;SDS011;11023;48.274;7.794;2023-02-01T00:39:45;9.50;;;6.57;;
21721;SDS011;11023;48.274;7.794;2023-02-01T00:42:11;10.60;;;7.18;;
21721;SDS011;11023;48.274;7.794;2023-02-01T00:44:36;10.35;;;6.95;;
21721;SDS011;11023;48.274;7.794;2023-02-01T00:47:02;10.98;;;7.53;;
21721;SDS011;11023;48.274;7.794;2023-02-01T00:49:27;10.43;;;7.10;;
21721;SDS011;11023;48.274;7.794;2023-02-01T00:51:53;8.82;;;7.18;;
21721;SDS011;11023;48.274;7.794;2023-02-01T00:54:19;10.00;;;7.25;;
21721;SDS011;11023;48.274;7.794;2023-02-01T00:56:45;11.50;;;7.55;;
21721;SDS011;11023;48.274;7.794;2023-02-01T00:59:11;11.02;;;8.02;;
21721;SDS011;11023;48.274;7.794;2023-02-01T01:01:37;10.10;;;7.22;;
21721;SDS011;11023;48.274;7.794;2023-02-01T01:04:03;10.23;;;7.47;;
21721;SDS011;11023;48.274;7.794;2023-02-01T01:06:30;8.98;;;7.35;;
21721;SDS011;11023;48.274;7.794;2023-02-01T01:08:58;11.13;;;7.28;;
21721;SDS011;11023;48.274;7.794;2023-02-01T01:11:26;9.93;;;7.00;;
21721;SDS011;11023;48.274;7.794;2023-02-01T01:13:55;11.05;;;6.93;;
21721;SDS011;11023;48.274;7.794;2023-02-01T01:16:23;10.27;;;7.40;;
21721;SDS011;11023;48.274;7.794;2023-02-01T01:18:51;9.45;;;6.88;;
21721;SDS011;11023;48.274;7.794;2023-02-01T01:21:17;9.80;;;7.45;;
21721;SDS011;11023;48.274;7.794;2023-02-01T01:23:43;10.55;;;7.32;;
21721;SDS011;11023;48.274;7.794;2023-02-01T01:26:12;11.05;;;7.38;;
21721;SDS011;11023;48.274;7.794;2023-02-01T01:28:40;9.88;;;6.90;;
21721;SDS011;11023;48.274;7.794;2023-02-01T01:31:09;9.82;;;7.00;;
21721;SDS011;11023;48.274;7.794;2023-02-01T01:33:36;10.50;;;7.50;;
21721;SDS011;11023;48.274;7.794;2023-02-01T01:36:04;9.10;;;6.95;;
21721;SDS011;11023;48.274;7.794;2023-02-01T01:38:36;11.57;;;7.85;;
21721;SDS011;11023;48.274;7.794;2023-02-01T01:41:02;10.30;;;7.13;;
21721;SDS011;11023;48.274;7.794;2023-02-01T01:46:25;10.80;;;7.22;;
21721;SDS011;11023;48.274;7.794;2023-02-01T01:49:17;9.73;;;7.20;;
21721;SDS011;11023;48.274;7.794;2023-02-01T01:51:51;12.50;;;7.28;;
21721;SDS011;11023;48.274;7.794;2023-02-01T01:54:27;9.80;;;7.35;;
21721;SDS011;11023;48.274;7.794;2023-02-01T01:56:59;10.43;;;6.90;;
21721;SDS011;11023;48.274;7.794;2023-02-01T01:59:33;11.75;;;7.25;;
21721;SDS011;11023;48.274;7.794;2023-02-01T02:02:03;12.10;;;7.25;;
21721;SDS011;11023;48.274;7.794;2023-02-01T02:04:28;10.70;;;7.05;;
21721;SDS011;11023;48.274;7.794;2023-02-01T02:06:56;9.38;;;6.53;;
21721;SDS011;11023;48.274;7.794;2023-02-01T02:09:29;8.30;;;6.10;;
21721;SDS011;11023;48.274;7.794;2023-02-01T02:11:55;9.88;;;6.50;;
21721;SDS011;11023;48.274;7.794;2023-02-01T02:14:21;8.00;;;5.97;;
21721;SDS011;11023;48.274;7.794;2023-02-01T02:17:02;8.80;;;5.93;;
21721;SDS011;11023;48.274;7.794;2023-02-01T02:25:40;9.98;;;5.75;;
21721;SDS011;11023;48.274;7.794;2023-02-01T02:31:04;8.00;;;6.10;;
21721;SDS011;11023;48.274;7.794;2023-02-01T02:36:42;9.57;;;6.38;;
21721;SDS011;11023;48.274;7.794;2023-02-01T02:39:57;10.68;;;6.97;;
21721;SDS011;11023;48.274;7.794;2023-02-01T02:45:21;9.38;;;6.53;;
21721;SDS011;11023;48.274;7.794;2023-02-01T02:56:34;8.70;;;6.10;;
21721;SDS011;11023;48.274;7.794;2023-02-01T02:59:22;9.60;;;6.18;;
21721;SDS011;11023;48.274;7.794;2023-02-01T03:02:09;9.65;;;5.95;;
21721;SDS011;11023;48.274;7.794;2023-02-01T03:04:54;8.25;;;6.18;;
21721;SDS011;11023;48.274;7.794;2023-02-01T03:10:16;8.52;;;6.20;;
21721;SDS011;11023;48.274;7.794;2023-02-01T03:13:19;9.85;;;6.60;;
21721;SDS011;11023;48.274;7.794;2023-02-01T03:21:57;10.18;;;6.90;;
21721;SDS011;11023;48.274;7.794;2023-02-01T03:24:46;11.40;;;6.30;;
21721;SDS011;11023;48.274;7.794;2023-02-01T03:27:22;8.98;;;6.63;;
21721;SDS011;11023;48.274;7.794;2023-02-01T03:29:59;9.73;;;6.53;;
21721;SDS011;11023;48.274;7.794;2023-02-01T03:32:33;9.70;;;6.82;;
21721;SDS011;11023;48.274;7.794;2023-02-01T03:35:20;11.98;;;6.88;;
21721;SDS011;11023;48.274;7.794;2023-02-01T03:41:12;9.43;;;6.00;;
21721;SDS011;11023;48.274;7.794;2023-02-01T03:43:59;10.93;;;7.10;;
21721;SDS011;11023;48.274;7.794;2023-02-01T03:46:34;10.68;;;5.88;;
21721;SDS011;11023;48.274;7.794;2023-02-01T03:49:05;11.18;;;6.78;;
21721;SDS011;11023;48.274;7.794;2023-02-01T03:51:33;10.38;;;6.63;;
21721;SDS011;11023;48.274;7.794;2023-02-01T03:54:03;8.73;;;6.25;;
21721;SDS011;11023;48.274;7.794;2023-02-01T03:56:32;10.00;;;6.40;;
21721;SDS011;11023;48.274;7.794;2023-02-01T03:59:04;12.55;;;6.75;;
21721;SDS011;11023;48.274;7.794;2023-02-01T04:01:30;9.68;;;6.13;;
21721;SDS011;11023;48.274;7.794;2023-02-01T04:03:56;10.35;;;6.05;;
21721;SDS011;11023;48.274;7.794;2023-02-01T04:06:23;10.18;;;5.88;;
21721;SDS011;11023;48.274;7.794;2023-02-01T04:08:50;11.30;;;5.80;;
21721;SDS011;11023;48.274;7.794;2023-02-01T04:11:16;8.98;;;5.90;;
21721;SDS011;11023;48.274;7.794;2023-02-01T04:13:43;11.00;;;6.10;;
21721;SDS011;11023;48.274;7.794;2023-02-01T04:16:09;9.52;;;6.28;;
21721;SDS011;11023;48.274;7.794;2023-02-01T04:18:35;10.32;;;6.28;;
21721;SDS011;11023;48.274;7.794;2023-02-01T04:21:01;10.43;;;6.03;;
21721;SDS011;11023;48.274;7.794;2023-02-01T04:23:27;9.30;;;6.10;;
21721;SDS011;11023;48.274;7.794;2023-02-01T04:25:53;9.98;;;5.95;;
21721;SDS011;11023;48.274;7.794;2023-02-01T04:28:23;9.50;;;5.53;;
21721;SDS011;11023;48.274;7.794;2023-02-01T04:30:49;10.30;;;6.28;;
21721;SDS011;11023;48.274;7.794;2023-02-01T04:33:16;10.77;;;5.63;;
21721;SDS011;11023;48.274;7.794;2023-02-01T04:35:42;10.02;;;6.47;;
21721;SDS011;11023;48.274;7.794;2023-02-01T04:38:07;14.35;;;7.03;;
21721;SDS011;11023;48.274;7.794;2023-02-01T04:40:33;9.27;;;6.40;;
21721;SDS011;11023;48.274;7.794;2023-02-01T04:43:02;8.57;;;5.82;;
21721;SDS011;11023;48.274;7.794;2023-02-01T04:45:29;9.88;;;6.07;;
21721;SDS011;11023;48.274;7.794;2023-02-01T04:47:55;8.45;;;5.93;;
21721;SDS011;11023;48.274;7.794;2023-02-01T04:50:21;9.32;;;5.63;;
21721;SDS011;11023;48.274;7.794;2023-02-01T04:52:47;9.90;;;5.80;;
21721;SDS011;11023;48.274;7.794;2023-02-01T04:55:12;9.48;;;5.80;;
21721;SDS011;11023;48.274;7.794;2023-02-01T04:57:39;9.32;;;5.82;;
21721;SDS011;11023;48.274;7.794;2023-02-01T05:00:06;8.30;;;5.32;;
21721;SDS011;11023;48.274;7.794;2023-02-01T05:02:33;8.70;;;5.90;;
21721;SDS011;11023;48.274;7.794;2023-02-01T05:05:00;8.13;;;5.55;;
21721;SDS011;11023;48.274;7.794;2023-02-01T05:07:26;10.48;;;5.70;;
21721;SDS011;11023;48.274;7.794;2023-02-01T05:09:51;9.52;;;5.50;;
21721;SDS011;11023;48.274;7.794;2023-02-01T05:12:17;8.60;;;5.15;;
21721;SDS011;11023;48.274;7.794;2023-02-01T05:17:27;8.57;;;4.85;;
21721;SDS011;11023;48.274;7.794;2023-02-01T05:19:52;7.95;;;4.57;;
21721;SDS011;11023;48.274;7.794;2023-02-01T05:22:18;8.18;;;4.90;;
21721;SDS011;11023;48.274;7.794;2023-02-01T05:24:44;7.40;;;4.65;;
21721;SDS011;11023;48.274;7.794;2023-02-01T05:27:10;8.25;;;4.70;;
21721;SDS011;11023;48.274;7.794;2023-02-01T05:29:35;9.65;;;4.85;;
21721;SDS011;11023;48.274;7.794;2023-02-01T05:32:01;6.93;;;4.50;;
21721;SDS011;11023;48.274;7.794;2023-02-01T05:34:26;8.70;;;5.03;;
21721;SDS011;11023;48.274;7.794;2023-02-01T05:36:52;5.95;;;4.55;;
21721;SDS011;11023;48.274;7.794;2023-02-01T05:39:18;9.07;;;4.93;;
21721;SDS011;11023;48.274;7.794;2023-02-01T05:41:44;7.78;;;4.50;;
21721;SDS011;11023;48.274;7.794;2023-02-01T05:44:10;5.18;;;3.97;;
21721;SDS011;11023;48.274;7.794;2023-02-01T05:46:36;6.32;;;4.43;;
21721;SDS011;11023;48.274;7.794;2023-02-01T05:49:02;7.72;;;4.75;;
21721;SDS011;11023;48.274;7.794;2023-02-01T05:51:29;6.22;;;4.38;;
21721;SDS011;11023;48.274;7.794;2023-02-01T05:53:54;6.03;;;3.85;;
21721;SDS011;11023;48.274;7.794;2023-02-01T05:56:20;5.88;;;3.85;;
21721;SDS011;11023;48.274;7.794;2023-02-01T05:58:46;9.55;;;4.57;;
21721;SDS011;11023;48.274;7.794;2023-02-01T06:01:11;7.63;;;4.22;;
21721;SDS011;11023;48.274;7.794;2023-02-01T06:03:37;6.72;;;4.22;;
21721;SDS011;11023;48.274;7.794;2023-02-01T06:06:02;4.78;;;3.80;;
21721;SDS011;11023;48.274;7.794;2023-02-01T06:08:29;5.32;;;3.70;;
21721;SDS011;11023;48.274;7.794;2023-02-01T06:10:58;6.65;;;4.13;;
21721;SDS011;11023;48.274;7.794;2023-02-01T06:13:25;6.50;;;3.78;;
21721;SDS011;11023;48.274;7.794;2023-02-01T06:15:51;7.47;;;4.15;;
21721;SDS011;11023;48.274;7.794;2023-02-01T06:18:17;6.07;;;3.40;;
21721;SDS011;11023;48.274;7.794;2023-02-01T06:20:44;4.72;;;3.10;;
21721;SDS011;11023;48.274;7.794;2023-02-01T06:23:10;5.60;;;3.28;;
21721;SDS011;11023;48.274;7.794;2023-02-01T06:25:36;3.63;;;2.83;;
21721;SDS011;11023;48.274;7.794;2023-02-01T06:28:02;4.03;;;2.95;;
21721;SDS011;11023;48.274;7.794;2023-02-01T06:30:30;3.53;;;2.53;;
21721;SDS011;11023;48.274;7.794;2023-02-01T06:32:56;4.93;;;2.75;;
21721;SDS011;11023;48.274;7.794;2023-02-01T06:35:22;3.75;;;2.40;;
21721;SDS011;11023;48.274;7.794;2023-02-01T06:37:48;4.95;;;2.53;;
21721;SDS011;11023;48.274;7.794;2023-02-01T06:40:13;3.05;;;2.25;;
21721;SDS011;11023;48.274;7.794;2023-02-01T06:42:39;3.80;;;2.45;;
21721;SDS011;11023;48.274;7.794;2023-02-01T06:45:05;2.60;;;2.15;;
21721;SDS011;11023;48.274;7.794;2023-02-01T06:47:32;3.60;;;2.55;;
21721;SDS011;11023;48.274;7.794;2023-02-01T06:49:57;3.55;;;2.40;;
21721;SDS011;11023;48.274;7.794;2023-02-01T06:52:23;3.20;;;2.70;;
21721;SDS011;11023;48.274;7.794;2023-02-01T06:54:49;4.63;;;2.85;;
21721;SDS011;11023;48.274;7.794;2023-02-01T06:57:14;4.60;;;3.22;;
21721;SDS011;11023;48.274;7.794;2023-02-01T06:59:40;3.90;;;2.47;;
21721;SDS011;11023;48.274;7.794;2023-02-01T07:02:05;3.30;;;2.40;;
21721;SDS011;11023;48.274;7.794;2023-02-01T07:04:34;5.63;;;2.80;;
21721;SDS011;11023;48.274;7.794;2023-02-01T07:07:00;4.50;;;2.80;;
21721;SDS011;11023;48.274;7.794;2023-02-01T07:09:25;3.67;;;2.45;;
21721;SDS011;11023;48.274;7.794;2023-02-01T07:11:51;5.30;;;3.30;;
21721;SDS011;11023;48.274;7.794;2023-02-01T07:14:16;4.88;;;2.95;;
21721;SDS011;11023;48.274;7.794;2023-02-01T07:16:42;4.30;;;3.00;;
21721;SDS011;11023;48.274;7.794;2023-02-01T07:19:08;6.10;;;2.95;;
21721;SDS011;11023;48.274;7.794;2023-02-01T07:21:33;4.55;;;3.25;;
21721;SDS011;11023;48.274;7.794;2023-02-01T07:23:59;4.10;;;2.60;;
21721;SDS011;11023;48.274;7.794;2023-02-01T07:26:25;5.25;;;2.75;;
21721;SDS011;11023;48.274;7.794;2023-02-01T07:28:50;4.47;;;2.28;;
21721;SDS011;11023;48.274;7.794;2023-02-01T07:31:17;4.93;;;2.70;;
21721;SDS011;11023;48.274;7.794;2023-02-01T07:33:46;4.13;;;2.15;;
21721;SDS011;11023;48.274;7.794;2023-02-01T07:36:17;4.07;;;2.88;;
21721;SDS011;11023;48.274;7.794;2023-02-01T07:38:44;5.45;;;3.50;;
21721;SDS011;11023;48.274;7.794;2023-02-01T07:41:12;7.68;;;3.83;;
21721;SDS011;11023;48.274;7.794;2023-02-01T07:43:37;7.47;;;4.20;;
21721;SDS011;11023;48.274;7.794;2023-02-01T07:46:03;4.50;;;2.85;;
21721;SDS011;11023;48.274;7.794;2023-02-01T07:48:30;4.38;;;2.92;;
21721;SDS011;11023;48.274;7.794;2023-02-01T07:51:03;3.67;;;2.72;;
21721;SDS011;11023;48.274;7.794;2023-02-01T07:53:34;3.30;;;2.28;;
21721;SDS011;11023;48.274;7.794;2023-02-01T07:56:00;5.88;;;2.63;;
21721;SDS011;11023;48.274;7.794;2023-02-01T07:58:26;3.60;;;2.40;;
21721;SDS011;11023;48.274;7.794;2023-02-01T08:00:52;2.65;;;2.38;;
21721;SDS011;11023;48.274;7.794;2023-02-01T08:03:37;4.53;;;2.40;;
21721;SDS011;11023;48.274;7.794;2023-02-01T08:06:03;5.43;;;2.58;;
21721;SDS011;11023;48.274;7.794;2023-02-01T08:08:29;4.57;;;2.55;;
21721;SDS011;11023;48.274;7.794;2023-02-01T08:11:02;4.40;;;2.40;;
21721;SDS011;11023;48.274;7.794;2023-02-01T08:13:29;5.28;;;2.40;;
21721;SDS011;11023;48.274;7.794;2023-02-01T08:15:59;4.68;;;2.25;;
21721;SDS011;11023;48.274;7.794;2023-02-01T08:18:25;4.80;;;2.28;;
21721;SDS011;11023;48.274;7.794;2023-02-01T08:20:51;4.40;;;2.22;;
21721;SDS011;11023;48.274;7.794;2023-02-01T08:23:17;3.15;;;2.33;;
21721;SDS011;11023;48.274;7.794;2023-02-01T08:25:44;4.25;;;2.53;;
21721;SDS011;11023;48.274;7.794;2023-02-01T08:28:10;3.58;;;2.38;;
21721;SDS011;11023;48.274;7.794;2023-02-01T08:30:36;5.20;;;2.40;;
21721;SDS011;11023;48.274;7.794;2023-02-01T08:33:07;3.47;;;2.42;;
21721;SDS011;11023;48.274;7.794;2023-02-01T08:35:37;4.32;;;2.85;;
21721;SDS011;11023;48.274;7.794;2023-02-01T08:38:03;6.22;;;2.88;;
21721;SDS011;11023;48.274;7.794;2023-02-01T08:40:29;4.65;;;3.28;;
21721;SDS011;11023;48.274;7.794;2023-02-01T08:42:56;5.15;;;2.80;;
21721;SDS011;11023;48.274;7.794;2023-02-01T08:45:23;4.45;;;2.72;;
21721;SDS011;11023;48.274;7.794;2023-02-01T08:47:50;6.65;;;2.80;;
21721;SDS011;11023;48.274;7.794;2023-02-01T08:50:20;3.65;;;2.97;;
21721;SDS011;11023;48.274;7.794;2023-02-01T08:52:46;4.38;;;3.10;;
21721;SDS011;11023;48.274;7.794;2023-02-01T08:55:12;5.72;;;2.97;;
21721;SDS011;11023;48.274;7.794;2023-02-01T08:57:39;6.93;;;3.00;;
21721;SDS011;11023;48.274;7.794;2023-02-01T09:00:05;4.70;;;2.67;;
21721;SDS011;11023;48.274;7.794;2023-02-01T09:02:34;6.50;;;3.00;;
21721;SDS011;11023;48.274;7.794;2023-02-01T09:05:00;6.00;;;3.20;;
21721;SDS011;11023;48.274;7.794;2023-02-01T09:07:26;5.47;;;3.10;;
21721;SDS011;11023;48.274;7.794;2023-02-01T09:09:51;6.60;;;3.00;;
21721;SDS011;11023;48.274;7.794;2023-02-01T09:12:19;5.32;;;3.40;;
21721;SDS011;11023;48.274;7.794;2023-02-01T09:14:46;8.73;;;3.58;;
21721;SDS011;11023;48.274;7.794;2023-02-01T09:17:11;5.40;;;3.45;;
21721;SDS011;11023;48.274;7.794;2023-02-01T09:19:38;6.20;;;3.80;;
21721;SDS011;11023;48.274;7.794;2023-02-01T09:22:04;6.53;;;3.97;;
21721;SDS011;11023;48.274;7.794;2023-02-01T09:24:30;7.32;;;4.00;;
21721;SDS011;11023;48.274;7.794;2023-02-01T09:26:55;6.47;;;3.95;;
21721;SDS011;11023;48.274;7.794;2023-02-01T09:29:21;7.28;;;3.95;;
21721;SDS011;11023;48.274;7.794;2023-02-01T09:31:47;6.03;;;3.67;;
21721;SDS011;11023;48.274;7.794;2023-02-01T09:34:12;9.50;;;4.03;;
21721;SDS011;11023;48.274;7.794;2023-02-01T09:36:38;9.20;;;4.10;;
21721;SDS011;11023;48.274;7.794;2023-02-01T09:39:04;7.43;;;3.97;;
21721;SDS011;11023;48.274;7.794;2023-02-01T09:41:42;8.23;;;4.00;;
21721;SDS011;11023;48.274;7.794;2023-02-01T09:46:58;6.10;;;3.78;;
21721;SDS011;11023;48.274;7.794;2023-02-01T09:49:36;5.80;;;3.92;;
21721;SDS011;11023;48.274;7.794;2023-02-01T09:52:07;6.15;;;4.10;;
21721;SDS011;11023;48.274;7.794;2023-02-01T09:54:44;6.95;;;3.97;;
21721;SDS011;11023;48.274;7.794;2023-02-01T09:57:16;7.15;;;3.83;;
21721;SDS011;11023;48.274;7.794;2023-02-01T09:59:48;5.40;;;3.42;;
21721;SDS011;11023;48.274;7.794;2023-02-01T10:02:20;6.57;;;3.20;;
21721;SDS011;11023;48.274;7.794;2023-02-01T10:04:48;6.05;;;3.70;;
21721;SDS011;11023;48.274;7.794;2023-02-01T10:07:20;7.88;;;3.72;;
21721;SDS011;11023;48.274;7.794;2023-02-01T10:10:10;5.80;;;3.63;;
21721;SDS011;11023;48.274;7.794;2023-02-01T10:15:35;5.65;;;3.00;;
21721;SDS011;11023;48.274;7.794;2023-02-01T10:18:24;5.10;;;2.90;;
21721;SDS011;11023;48.274;7.794;2023-02-01T10:26:24;4.38;;;2.83;;
21721;SDS011;11023;48.274;7.794;2023-02-01T10:28:53;5.43;;;2.97;;
21721;SDS011;11023;48.274;7.794;2023-02-01T10:31:24;6.05;;;3.28;;
21721;SDS011;11023;48.274;7.794;2023-02-01T10:33:57;7.90;;;3.40;;
21721;SDS011;11023;48.274;7.794;2023-02-01T10:36:36;6.68;;;3.33;;
21721;SDS011;11023;48.274;7.794;2023-02-01T10:39:06;6.20;;;3.47;;
21721;SDS011;11023;48.274;7.794;2023-02-01T10:41:36;5.05;;;3.45;;
21721;SDS011;11023;48.274;7.794;2023-02-01T10:44:06;9.82;;;3.97;;
21721;SDS011;11023;48.274;7.794;2023-02-01T10:46:40;6.95;;;3.55;;
21721;SDS011;11023;48.274;7.794;2023-02-01T10:49:09;5.55;;;3.38;;
21721;SDS011;11023;48.274;7.794;2023-02-01T10:51:58;7.57;;;4.05;;
21721;SDS011;11023;48.274;7.794;2023-02-01T10:54:32;10.05;;;3.92;;
21721;SDS011;11023;48.274;7.794;2023-02-01T10:57:00;7.55;;;3.97;;
21721;SDS011;11023;48.274;7.794;2023-02-01T10:59:27;8.05;;;4.28;;
21721;SDS011;11023;48.274;7.794;2023-02-01T11:02:01;5.40;;;3.75;;
21721;SDS011;11023;48.274;7.794;2023-02-01T11:04:40;6.47;;;3.63;;
21721;SDS011;11023;48.274;7.794;2023-02-01T11:07:14;5.80;;;3.35;;
21721;SDS011;11023;48.274;7.794;2023-02-01T11:09:48;8.10;;;3.53;;
21721;SDS011;11023;48.274;7.794;2023-02-01T11:15:18;7.00;;;3.70;;
21721;SDS011;11023;48.274;7.794;2023-02-01T11:17:50;9.05;;;3.97;;
21721;SDS011;11023;48.274;7.794;2023-02-01T11:20:21;5.57;;;3.60;;
21721;SDS011;11023;48.274;7.794;2023-02-01T11:23:04;4.97;;;2.72;;
21721;SDS011;11023;48.274;7.794;2023-02-01T11:25:31;5.32;;;3.00;;
21721;SDS011;11023;48.274;7.794;2023-02-01T11:28:00;9.13;;;3.45;;
21721;SDS011;11023;48.274;7.794;2023-02-01T11:32:52;9.52;;;3.22;;
21721;SDS011;11023;48.274;7.794;2023-02-01T11:35:19;8.60;;;3.08;;
21721;SDS011;11023;48.274;7.794;2023-02-01T11:37:48;10.40;;;3.25;;
21721;SDS011;11023;48.274;7.794;2023-02-01T11:42:56;8.57;;;2.80;;
21721;SDS011;11023;48.274;7.794;2023-02-01T11:45:34;11.13;;;4.80;;
21721;SDS011;11023;48.274;7.794;2023-02-01T11:48:02;9.93;;;3.65;;
21721;SDS011;11023;48.274;7.794;2023-02-01T11:50:37;9.73;;;6.00;;
21721;SDS011;11023;48.274;7.794;2023-02-01T11:56:26;10.80;;;4.18;;
21721;SDS011;11023;48.274;7.794;2023-02-01T12:01:54;8.07;;;3.30;;
21721;SDS011;11023;48.274;7.794;2023-02-01T12:07:20;7.97;;;3.03;;
21721;SDS011;11023;48.274;7.794;2023-02-01T12:15:59;10.10;;;2.97;;
21721;SDS011;11023;48.274;7.794;2023-02-01T12:18:41;9.60;;;3.45;;
21721;SDS011;11023;48.274;7.794;2023-02-01T12:24:08;10.23;;;3.00;;
21721;SDS011;11023;48.274;7.794;2023-02-01T12:27:21;8.95;;;3.20;;
21721;SDS011;11023;48.274;7.794;2023-02-01T12:46:16;11.55;;;2.83;;
21721;SDS011;11023;48.274;7.794;2023-02-01T12:49:01;11.60;;;2.28;;
21721;SDS011;11023;48.274;7.794;2023-02-01T12:51:37;7.47;;;2.15;;
21721;SDS011;11023;48.274;7.794;2023-02-01T12:54:13;8.57;;;2.10;;
21721;SDS011;11023;48.274;7.794;2023-02-01T12:57:02;11.15;;;2.80;;
21721;SDS011;11023;48.274;7.794;2023-02-01T12:59:39;11.52;;;2.53;;
21721;SDS011;11023;48.274;7.794;2023-02-01T13:02:16;10.25;;;2.70;;
21721;SDS011;11023;48.274;7.794;2023-02-01T13:07:21;11.43;;;2.55;;
21721;SDS011;11023;48.274;7.794;2023-02-01T13:10:04;10.97;;;2.70;;
21721;SDS011;11023;48.274;7.794;2023-02-01T13:12:40;8.20;;;2.60;;
21721;SDS011;11023;48.274;7.794;2023-02-01T13:15:19;7.72;;;2.40;;
21721;SDS011;11023;48.274;7.794;2023-02-01T13:17:49;9.85;;;2.55;;
21721;SDS011;11023;48.274;7.794;2023-02-01T13:20:25;14.73;;;2.88;;
21721;SDS011;11023;48.274;7.794;2023-02-01T13:23:02;10.00;;;2.58;;
21721;SDS011;11023;48.274;7.794;2023-02-01T13:25:46;8.68;;;2.50;;
21721;SDS011;11023;48.274;7.794;2023-02-01T13:28:28;9.07;;;2.40;;
21721;SDS011;11023;48.274;7.794;2023-02-01T13:42:34;16.27;;;6.80;;
21721;SDS011;11023;48.274;7.794;2023-02-01T13:45:20;36.15;;;21.50;;
21721;SDS011;11023;48.274;7.794;2023-02-01T13:47:52;11.25;;;4.72;;
21721;SDS011;11023;48.274;7.794;2023-02-01T13:53:03;12.02;;;2.95;;
21721;SDS011;11023;48.274;7.794;2023-02-01T13:55:38;9.25;;;2.72;;
21721;SDS011;11023;48.274;7.794;2023-02-01T13:58:38;7.57;;;2.55;;
21721;SDS011;11023;48.274;7.794;2023-02-01T14:01:51;10.52;;;2.65;;
21721;SDS011;11023;48.274;7.794;2023-02-01T14:03:53;10.23;;;3.10;;
21721;SDS011;11023;48.274;7.794;2023-02-01T14:11:44;14.75;;;2.50;;
21721;SDS011;11023;48.274;7.794;2023-02-01T14:19:23;9.35;;;2.40;;
21721;SDS011;11023;48.274;7.794;2023-02-01T14:21:55;8.00;;;2.20;;
21721;SDS011;11023;48.274;7.794;2023-02-01T14:26:50;13.48;;;3.00;;
21721;SDS011;11023;48.274;7.794;2023-02-01T14:32:15;11.82;;;2.45;;
21721;SDS011;11023;48.274;7.794;2023-02-01T14:37:58;11.15;;;2.20;;
21721;SDS011;11023;48.274;7.794;2023-02-01T14:40:00;11.38;;;2.45;;
21721;SDS011;11023;48.274;7.794;2023-02-01T14:47:52;14.00;;;2.53;;
21721;SDS011;11023;48.274;7.794;2023-02-01T14:55:57;11.43;;;2.40;;
21721;SDS011;11023;48.274;7.794;2023-02-01T14:58:48;11.57;;;2.67;;
21721;SDS011;11023;48.274;7.794;2023-02-01T15:01:34;11.82;;;2.80;;
21721;SDS011;11023;48.274;7.794;2023-02-01T15:04:16;12.98;;;2.90;;
21721;SDS011;11023;48.274;7.794;2023-02-01T15:09:37;11.00;;;2.70;;
21721;SDS011;11023;48.274;7.794;2023-02-01T15:15:27;9.80;;;2.75;;
21721;SDS011;11023;48.274;7.794;2023-02-01T15:17:37;15.52;;;2.85;;
21721;SDS011;11023;48.274;7.794;2023-02-01T15:20:04;12.93;;;2.92;;
21721;SDS011;11023;48.274;7.794;2023-02-01T15:22:41;13.98;;;2.63;;
21721;SDS011;11023;48.274;7.794;2023-02-01T15:25:20;11.00;;;2.63;;
21721;SDS011;11023;48.274;7.794;2023-02-01T15:27:48;10.82;;;2.97;;
21721;SDS011;11023;48.274;7.794;2023-02-01T15:30:21;11.23;;;3.00;;
21721;SDS011;11023;48.274;7.794;2023-02-01T15:32:52;15.45;;;2.72;;
21721;SDS011;11023;48.274;7.794;2023-02-01T15:35:45;15.65;;;3.47;;
21721;SDS011;11023;48.274;7.794;2023-02-01T15:38:19;11.60;;;2.47;;
21721;SDS011;11023;48.274;7.794;2023-02-01T15:43:34;11.00;;;2.67;;
21721;SDS011;11023;48.274;7.794;2023-02-01T15:46:30;11.98;;;2.47;;
21721;SDS011;11023;48.274;7.794;2023-02-01T15:48:58;12.05;;;2.50;;
21721;SDS011;11023;48.274;7.794;2023-02-01T15:51:26;10.93;;;2.20;;
21721;SDS011;11023;48.274;7.794;2023-02-01T15:56:28;12.95;;;2.45;;
21721;SDS011;11023;48.274;7.794;2023-02-01T15:59:29;10.25;;;2.38;;
21721;SDS011;11023;48.274;7.794;2023-02-01T16:01:54;11.00;;;2.80;;
21721;SDS011;11023;48.274;7.794;2023-02-01T16:04:22;12.20;;;2.78;;
21721;SDS011;11023;48.274;7.794;2023-02-01T16:06:53;11.35;;;2.80;;
21721;SDS011;11023;48.274;7.794;2023-02-01T16:09:24;11.50;;;2.45;;
21721;SDS011;11023;48.274;7.794;2023-02-01T16:12:00;12.50;;;3.05;;
21721;SDS011;11023;48.274;7.794;2023-02-01T16:14:28;12.05;;;3.50;;
21721;SDS011;11023;48.274;7.794;2023-02-01T16:16:55;13.05;;;3.45;;
21721;SDS011;11023;48.274;7.794;2023-02-01T16:19:22;10.57;;;2.65;;
21721;SDS011;11023;48.274;7.794;2023-02-01T16:21:53;11.07;;;2.53;;
21721;SDS011;11023;48.274;7.794;2023-02-01T16:24:20;10.70;;;2.78;;
21721;SDS011;11023;48.274;7.794;2023-02-01T16:26:48;10.80;;;2.50;;
21721;SDS011;11023;48.274;7.794;2023-02-01T16:29:13;8.27;;;2.60;;
21721;SDS011;11023;48.274;7.794;2023-02-01T16:31:40;9.13;;;2.17;;
21721;SDS011;11023;48.274;7.794;2023-02-01T16:34:06;8.90;;;2.42;;
21721;SDS011;11023;48.274;7.794;2023-02-01T16:36:38;10.48;;;2.25;;
21721;SDS011;11023;48.274;7.794;2023-02-01T16:39:04;10.63;;;2.33;;
21721;SDS011;11023;48.274;7.794;2023-02-01T16:41:32;11.73;;;2.63;;
21721;SDS011;11023;48.274;7.794;2023-02-01T16:43:57;10.77;;;2.30;;
21721;SDS011;11023;48.274;7.794;2023-02-01T16:46:24;10.02;;;2.35;;
21721;SDS011;11023;48.274;7.794;2023-02-01T16:48:57;9.30;;;2.67;;
21721;SDS011;11023;48.274;7.794;2023-02-01T16:51:33;11.35;;;2.63;;
21721;SDS011;11023;48.274;7.794;2023-02-01T16:53:59;12.23;;;3.28;;
21721;SDS011;11023;48.274;7.794;2023-02-01T16:56:30;15.75;;;3.13;;
21721;SDS011;11023;48.274;7.794;2023-02-01T16:58:57;11.98;;;2.90;;
21721;SDS011;11023;48.274;7.794;2023-02-01T17:01:23;12.43;;;2.58;;
21721;SDS011;11023;48.274;7.794;2023-02-01T17:03:49;11.95;;;2.75;;
21721;SDS011;11023;48.274;7.794;2023-02-01T17:06:19;10.35;;;2.83;;
21721;SDS011;11023;48.274;7.794;2023-02-01T17:08:49;10.30;;;2.78;;
21721;SDS011;11023;48.274;7.794;2023-02-01T17:11:19;9.90;;;2.80;;
21721;SDS011;11023;48.274;7.794;2023-02-01T17:13:45;11.77;;;3.15;;
21721;SDS011;11023;48.274;7.794;2023-02-01T17:18:43;11.90;;;3.13;;
21721;SDS011;11023;48.274;7.794;2023-02-01T17:21:11;15.73;;;3.20;;
21721;SDS011;11023;48.274;7.794;2023-02-01T17:23:36;14.35;;;3.47;;
21721;SDS011;11023;48.274;7.794;2023-02-01T17:26:02;10.65;;;2.80;;
21721;SDS011;11023;48.274;7.794;2023-02-01T17:28:28;12.15;;;2.75;;
21721;SDS011;11023;48.274;7.794;2023-02-01T17:30:54;13.15;;;3.20;;
21721;SDS011;11023;48.274;7.794;2023-02-01T17:33:25;12.15;;;3.30;;
21721;SDS011;11023;48.274;7.794;2023-02-01T17:36:01;11.00;;;2.53;;